sensor_id;sensor_type;location;lat;lon;timestamp;P1;durP1;ratioP1;P2;durP2;ratioP2
9522;SDS011;63165;43.016;25.784;2023-09-18T06:37:47;11.65;;;3.92;;
9522;SDS011;63165;43.016;25.784;2023-09-18T06:40:16;8.82;;;3.60;;
9522;SDS011;63165;43.016;25.784;2023-09-18T07:25:23;11.70;;;3.08;;
9522;SDS011;63165;43.016;25.784;2023-09-18T07:28:12;8.07;;;2.90;;
9522;SDS011;63165;43.016;25.784;2023-09-18T07:30:55;9.98;;;3.20;;
9522;SDS011;63165;43.016;25.784;2023-09-18T07:33:42;9.38;;;3.00;;
9522;SDS011;63165;43.016;25.784;2023-09-18T07:36:26;9.93;;;3.08;;
9522;SDS011;63165;43.016;25.784;2023-09-18T07:45:24;7.20;;;2.83;;
9522;SDS011;63165;43.016;25.784;2023-09-18T07:47:53;8.98;;;2.55;;
9522;SDS011;63165;43.016;25.784;2023-09-18T07:50:26;9.48;;;2.80;;
9522;SDS011;63165;43.016;25.784;2023-09-18T07:52:54;4.97;;;2.60;;
9522;SDS011;63165;43.016;25.784;2023-09-18T07:55:21;9.30;;;3.33;;
9522;SDS011;63165;43.016;25.784;2023-09-18T07:57:49;8.32;;;3.30;;
9522;SDS011;63165;43.016;25.784;2023-09-18T08:00:21;11.23;;;3.53;;
9522;SDS011;63165;43.016;25.784;2023-09-18T08:02:52;7.10;;;2.95;;
9522;SDS011;63165;43.016;25.784;2023-09-18T08:05:26;7.57;;;3.05;;
9522;SDS011;63165;43.016;25.784;2023-09-18T08:07:57;8.45;;;2.90;;
9522;SDS011;63165;43.016;25.784;2023-09-18T08:10:32;8.88;;;3.17;;
9522;SDS011;63165;43.016;25.784;2023-09-18T08:13:06;8.98;;;3.00;;
9522;SDS011;63165;43.016;25.784;2023-09-18T08:15:36;6.68;;;2.67;;
9522;SDS011;63165;43.016;25.784;2023-09-18T08:18:04;7.88;;;3.03;;
9522;SDS011;63165;43.016;25.784;2023-09-18T08:20:32;10.00;;;3.67;;
9522;SDS011;63165;43.016;25.784;2023-09-18T08:23:02;7.05;;;3.38;;
9522;SDS011;63165;43.016;25.784;2023-09-18T08:25:43;10.90;;;3.28;;
9522;SDS011;63165;43.016;25.784;2023-09-18T08:28:29;9.70;;;3.40;;
9522;SDS011;63165;43.016;25.784;2023-09-18T08:31:24;11.88;;;3.25;;
9522;SDS011;63165;43.016;25.784;2023-09-18T08:33:53;10.07;;;4.10;;
9522;SDS011;63165;43.016;25.784;2023-09-18T08:36:24;10.77;;;3.78;;
9522;SDS011;63165;43.016;25.784;2023-09-18T08:38:51;10.68;;;4.15;;
9522;SDS011;63165;43.016;25.784;2023-09-18T08:41:19;14.57;;;3.95;;
9522;SDS011;63165;43.016;25.784;2023-09-18T08:43:53;9.68;;;3.75;;
9522;SDS011;63165;43.016;25.784;2023-09-18T08:46:31;8.70;;;3.83;;
9522;SDS011;63165;43.016;25.784;2023-09-18T08:49:09;10.50;;;4.15;;
9522;SDS011;63165;43.016;25.784;2023-09-18T08:51:40;14.07;;;4.00;;
9522;SDS011;63165;43.016;25.784;2023-09-18T08:54:10;8.40;;;3.60;;
9522;SDS011;63165;43.016;25.784;2023-09-18T08:56:39;12.57;;;4.40;;
9522;SDS011;63165;43.016;25.784;2023-09-18T08:59:29;12.25;;;4.68;;
9522;SDS011;63165;43.016;25.784;2023-09-18T09:02:00;15.25;;;4.35;;
9522;SDS011;63165;43.016;25.784;2023-09-18T09:04:28;9.32;;;4.05;;
9522;SDS011;63165;43.016;25.784;2023-09-18T09:06:56;9.20;;;4.45;;
9522;SDS011;63165;43.016;25.784;2023-09-18T09:09:31;11.20;;;5.03;;
9522;SDS011;63165;43.016;25.784;2023-09-18T09:12:01;10.75;;;4.25;;
9522;SDS011;63165;43.016;25.784;2023-09-18T09:14:30;13.43;;;4.55;;
9522;SDS011;63165;43.016;25.784;2023-09-18T09:16:58;10.07;;;4.70;;
9522;SDS011;63165;43.016;25.784;2023-09-18T09:19:30;9.68;;;4.57;;
9522;SDS011;63165;43.016;25.784;2023-09-18T09:22:04;9.63;;;4.03;;
9522;SDS011;63165;43.016;25.784;2023-09-18T09:24:38;14.75;;;5.00;;
9522;SDS011;63165;43.016;25.784;2023-09-18T09:27:07;9.32;;;4.28;;
9522;SDS011;63165;43.016;25.784;2023-09-18T09:29:35;10.65;;;4.10;;
9522;SDS011;63165;43.016;25.784;2023-09-18T09:32:18;10.48;;;4.47;;
9522;SDS011;63165;43.016;25.784;2023-09-18T09:34:57;10.63;;;4.32;;
9522;SDS011;63165;43.016;25.784;2023-09-18T09:37:30;12.30;;;4.35;;
9522;SDS011;63165;43.016;25.784;2023-09-18T09:40:02;11.27;;;4.43;;
9522;SDS011;63165;43.016;25.784;2023-09-18T09:42:40;10.52;;;4.20;;
9522;SDS011;63165;43.016;25.784;2023-09-18T09:45:14;13.95;;;4.80;;
9522;SDS011;63165;43.016;25.784;2023-09-18T09:47:44;11.02;;;4.18;;
9522;SDS011;63165;43.016;25.784;2023-09-18T09:50:18;10.07;;;4.22;;
9522;SDS011;63165;43.016;25.784;2023-09-18T09:52:47;17.27;;;4.57;;
9522;SDS011;63165;43.016;25.784;2023-09-18T09:55:29;22.42;;;5.10;;
9522;SDS011;63165;43.016;25.784;2023-09-18T09:58:00;24.23;;;4.72;;
9522;SDS011;63165;43.016;25.784;2023-09-18T10:00:43;11.55;;;4.22;;
9522;SDS011;63165;43.016;25.784;2023-09-18T10:03:16;15.03;;;4.80;;
9522;SDS011;63165;43.016;25.784;2023-09-18T10:05:49;11.98;;;4.50;;
9522;SDS011;63165;43.016;25.784;2023-09-18T10:08:25;10.45;;;4.20;;
9522;SDS011;63165;43.016;25.784;2023-09-18T10:11:20;9.63;;;4.15;;
9522;SDS011;63165;43.016;25.784;2023-09-18T10:13:52;10.45;;;4.28;;
9522;SDS011;63165;43.016;25.784;2023-09-18T10:16:23;9.50;;;3.63;;
9522;SDS011;63165;43.016;25.784;2023-09-18T10:33:03;7.68;;;3.10;;
9522;SDS011;63165;43.016;25.784;2023-09-18T10:35:32;10.18;;;3.72;;
9522;SDS011;63165;43.016;25.784;2023-09-18T10:38:02;8.95;;;3.65;;
9522;SDS011;63165;43.016;25.784;2023-09-18T10:40:35;11.68;;;3.88;;
9522;SDS011;63165;43.016;25.784;2023-09-18T10:46:12;9.85;;;3.60;;
9522;SDS011;63165;43.016;25.784;2023-09-18T10:55:33;11.88;;;3.55;;
9522;SDS011;63165;43.016;25.784;2023-09-18T10:58:03;9.77;;;3.45;;
9522;SDS011;63165;43.016;25.784;2023-09-18T11:00:49;6.93;;;3.40;;
9522;SDS011;63165;43.016;25.784;2023-09-18T11:03:21;11.98;;;3.60;;
9522;SDS011;63165;43.016;25.784;2023-09-18T11:06:02;7.45;;;3.50;;
9522;SDS011;63165;43.016;25.784;2023-09-18T11:08:32;7.88;;;3.15;;
9522;SDS011;63165;43.016;25.784;2023-09-18T11:11:05;10.60;;;3.30;;
9522;SDS011;63165;43.016;25.784;2023-09-18T11:13:38;6.55;;;3.00;;
9522;SDS011;63165;43.016;25.784;2023-09-18T11:16:13;12.35;;;3.50;;
9522;SDS011;63165;43.016;25.784;2023-09-18T11:18:45;48.22;;;16.17;;
9522;SDS011;63165;43.016;25.784;2023-09-18T11:21:15;71.43;;;22.30;;
9522;SDS011;63165;43.016;25.784;2023-09-18T11:23:44;27.95;;;9.90;;
9522;SDS011;63165;43.016;25.784;2023-09-18T11:26:14;17.52;;;4.47;;
9522;SDS011;63165;43.016;25.784;2023-09-18T11:28:44;12.43;;;3.72;;
9522;SDS011;63165;43.016;25.784;2023-09-18T11:31:15;7.55;;;3.05;;
9522;SDS011;63165;43.016;25.784;2023-09-18T11:33:43;10.82;;;3.42;;
9522;SDS011;63165;43.016;25.784;2023-09-18T11:36:11;8.02;;;3.70;;
9522;SDS011;63165;43.016;25.784;2023-09-18T11:41:24;11.17;;;3.33;;
9522;SDS011;63165;43.016;25.784;2023-09-18T11:44:00;8.18;;;3.25;;
9522;SDS011;63165;43.016;25.784;2023-09-18T11:47:01;6.90;;;3.30;;
9522;SDS011;63165;43.016;25.784;2023-09-18T11:49:29;6.85;;;3.00;;
9522;SDS011;63165;43.016;25.784;2023-09-18T11:51:58;8.00;;;2.92;;
9522;SDS011;63165;43.016;25.784;2023-09-18T11:54:27;9.07;;;3.40;;
9522;SDS011;63165;43.016;25.784;2023-09-18T11:56:57;6.47;;;2.95;;
9522;SDS011;63165;43.016;25.784;2023-09-18T11:59:33;8.38;;;3.20;;
9522;SDS011;63165;43.016;25.784;2023-09-18T12:02:02;8.05;;;2.90;;
9522;SDS011;63165;43.016;25.784;2023-09-18T12:04:33;9.80;;;3.08;;
9522;SDS011;63165;43.016;25.784;2023-09-18T12:07:01;13.57;;;3.25;;
9522;SDS011;63165;43.016;25.784;2023-09-18T12:09:30;7.78;;;3.22;;
9522;SDS011;63165;43.016;25.784;2023-09-18T12:12:00;10.05;;;3.53;;
9522;SDS011;63165;43.016;25.784;2023-09-18T12:14:30;7.80;;;3.00;;
9522;SDS011;63165;43.016;25.784;2023-09-18T12:16:59;9.98;;;3.22;;
9522;SDS011;63165;43.016;25.784;2023-09-18T12:19:29;11.13;;;3.33;;
9522;SDS011;63165;43.016;25.784;2023-09-18T12:21:59;7.93;;;3.55;;
9522;SDS011;63165;43.016;25.784;2023-09-18T12:24:27;7.45;;;3.30;;
9522;SDS011;63165;43.016;25.784;2023-09-18T12:26:54;5.95;;;2.95;;
9522;SDS011;63165;43.016;25.784;2023-09-18T12:29:25;7.30;;;3.03;;
9522;SDS011;63165;43.016;25.784;2023-09-18T12:31:53;9.38;;;3.10;;
9522;SDS011;63165;43.016;25.784;2023-09-18T12:34:21;6.95;;;3.20;;
9522;SDS011;63165;43.016;25.784;2023-09-18T12:36:48;6.25;;;2.85;;
9522;SDS011;63165;43.016;25.784;2023-09-18T12:39:20;8.15;;;3.03;;
9522;SDS011;63165;43.016;25.784;2023-09-18T12:41:48;8.05;;;3.25;;
9522;SDS011;63165;43.016;25.784;2023-09-18T12:44:16;8.65;;;3.05;;
9522;SDS011;63165;43.016;25.784;2023-09-18T12:46:46;9.25;;;3.10;;
9522;SDS011;63165;43.016;25.784;2023-09-18T12:49:17;8.50;;;3.40;;
9522;SDS011;63165;43.016;25.784;2023-09-18T12:51:53;6.15;;;2.88;;
9522;SDS011;63165;43.016;25.784;2023-09-18T12:54:22;7.65;;;3.10;;
9522;SDS011;63165;43.016;25.784;2023-09-18T12:57:04;11.98;;;3.45;;
9522;SDS011;63165;43.016;25.784;2023-09-18T12:59:33;10.48;;;3.08;;
9522;SDS011;63165;43.016;25.784;2023-09-18T13:02:02;7.40;;;3.35;;
9522;SDS011;63165;43.016;25.784;2023-09-18T13:04:30;7.75;;;3.30;;
9522;SDS011;63165;43.016;25.784;2023-09-18T13:07:06;7.53;;;2.90;;
9522;SDS011;63165;43.016;25.784;2023-09-18T13:09:34;7.55;;;3.58;;
9522;SDS011;63165;43.016;25.784;2023-09-18T13:12:03;7.47;;;3.08;;
9522;SDS011;63165;43.016;25.784;2023-09-18T13:17:37;7.05;;;3.20;;
9522;SDS011;63165;43.016;25.784;2023-09-18T13:20:07;9.02;;;2.95;;
9522;SDS011;63165;43.016;25.784;2023-09-18T13:22:37;6.95;;;3.10;;
9522;SDS011;63165;43.016;25.784;2023-09-18T13:25:05;6.28;;;3.03;;
9522;SDS011;63165;43.016;25.784;2023-09-18T13:27:33;6.90;;;3.25;;
9522;SDS011;63165;43.016;25.784;2023-09-18T13:30:01;8.15;;;3.63;;
9522;SDS011;63165;43.016;25.784;2023-09-18T13:32:33;11.27;;;3.47;;
9522;SDS011;63165;43.016;25.784;2023-09-18T13:35:02;8.02;;;3.50;;
9522;SDS011;63165;43.016;25.784;2023-09-18T13:37:32;8.02;;;3.45;;
9522;SDS011;63165;43.016;25.784;2023-09-18T13:39:59;7.85;;;3.42;;
9522;SDS011;63165;43.016;25.784;2023-09-18T13:42:28;7.75;;;3.58;;
9522;SDS011;63165;43.016;25.784;2023-09-18T13:44:56;6.80;;;3.33;;
9522;SDS011;63165;43.016;25.784;2023-09-18T13:47:26;8.10;;;3.35;;
9522;SDS011;63165;43.016;25.784;2023-09-18T13:49:53;9.68;;;3.90;;
9522;SDS011;63165;43.016;25.784;2023-09-18T13:52:26;8.70;;;3.28;;
9522;SDS011;63165;43.016;25.784;2023-09-18T13:54:54;10.02;;;4.32;;
9522;SDS011;63165;43.016;25.784;2023-09-18T13:57:22;14.18;;;3.78;;
9522;SDS011;63165;43.016;25.784;2023-09-18T13:59:50;11.55;;;3.75;;
9522;SDS011;63165;43.016;25.784;2023-09-18T14:02:18;9.02;;;3.75;;
9522;SDS011;63165;43.016;25.784;2023-09-18T14:04:46;9.05;;;3.63;;
9522;SDS011;63165;43.016;25.784;2023-09-18T14:07:14;9.90;;;4.10;;
9522;SDS011;63165;43.016;25.784;2023-09-18T14:09:43;12.00;;;4.05;;
9522;SDS011;63165;43.016;25.784;2023-09-18T14:12:11;8.10;;;3.65;;
9522;SDS011;63165;43.016;25.784;2023-09-18T14:14:40;11.65;;;3.75;;
9522;SDS011;63165;43.016;25.784;2023-09-18T14:17:08;8.95;;;3.75;;
9522;SDS011;63165;43.016;25.784;2023-09-18T14:19:35;11.50;;;3.60;;
9522;SDS011;63165;43.016;25.784;2023-09-18T14:22:03;7.32;;;3.58;;
9522;SDS011;63165;43.016;25.784;2023-09-18T14:24:45;9.32;;;3.72;;
9522;SDS011;63165;43.016;25.784;2023-09-18T14:27:13;8.32;;;3.53;;
9522;SDS011;63165;43.016;25.784;2023-09-18T14:29:40;10.75;;;3.88;;
9522;SDS011;63165;43.016;25.784;2023-09-18T14:32:10;9.60;;;4.15;;
9522;SDS011;63165;43.016;25.784;2023-09-18T14:34:38;7.97;;;3.75;;
9522;SDS011;63165;43.016;25.784;2023-09-18T14:37:06;8.73;;;3.70;;
9522;SDS011;63165;43.016;25.784;2023-09-18T14:39:34;8.43;;;3.92;;
9522;SDS011;63165;43.016;25.784;2023-09-18T14:42:03;7.63;;;3.63;;
9522;SDS011;63165;43.016;25.784;2023-09-18T14:44:30;8.52;;;3.30;;
9522;SDS011;63165;43.016;25.784;2023-09-18T14:46:58;11.45;;;3.60;;
9522;SDS011;63165;43.016;25.784;2023-09-18T14:49:25;9.82;;;3.90;;
9522;SDS011;63165;43.016;25.784;2023-09-18T14:51:57;7.85;;;3.75;;
9522;SDS011;63165;43.016;25.784;2023-09-18T14:54:38;9.82;;;3.75;;
9522;SDS011;63165;43.016;25.784;2023-09-18T14:59:52;7.85;;;3.47;;
9522;SDS011;63165;43.016;25.784;2023-09-18T15:07:57;11.70;;;3.95;;
9522;SDS011;63165;43.016;25.784;2023-09-18T15:10:34;12.07;;;3.58;;
9522;SDS011;63165;43.016;25.784;2023-09-18T15:13:08;7.53;;;3.45;;
9522;SDS011;63165;43.016;25.784;2023-09-18T15:15:36;10.85;;;3.70;;
9522;SDS011;63165;43.016;25.784;2023-09-18T15:18:04;7.63;;;3.58;;
9522;SDS011;63165;43.016;25.784;2023-09-18T15:20:32;9.32;;;3.85;;
9522;SDS011;63165;43.016;25.784;2023-09-18T15:23:17;8.68;;;3.67;;
9522;SDS011;63165;43.016;25.784;2023-09-18T15:26:30;13.40;;;3.88;;
9522;SDS011;63165;43.016;25.784;2023-09-18T15:29:55;7.78;;;3.80;;
9522;SDS011;63165;43.016;25.784;2023-09-18T15:35:45;13.27;;;4.93;;
9522;SDS011;63165;43.016;25.784;2023-09-18T15:38:49;23.30;;;7.82;;
9522;SDS011;63165;43.016;25.784;2023-09-18T15:48:09;16.27;;;6.68;;
9522;SDS011;63165;43.016;25.784;2023-09-18T15:50:49;18.48;;;5.95;;
9522;SDS011;63165;43.016;25.784;2023-09-18T15:53:42;19.92;;;5.43;;
9522;SDS011;63165;43.016;25.784;2023-09-18T16:00:07;14.32;;;4.90;;
9522;SDS011;63165;43.016;25.784;2023-09-18T16:02:56;14.35;;;4.93;;
9522;SDS011;63165;43.016;25.784;2023-09-18T16:09:13;11.48;;;4.20;;
9522;SDS011;63165;43.016;25.784;2023-09-18T16:11:42;11.38;;;4.13;;
9522;SDS011;63165;43.016;25.784;2023-09-18T16:15:14;17.73;;;4.68;;
9522;SDS011;63165;43.016;25.784;2023-09-18T16:18:04;12.43;;;4.22;;
9522;SDS011;63165;43.016;25.784;2023-09-18T16:20:38;11.65;;;4.60;;
9522;SDS011;63165;43.016;25.784;2023-09-18T16:23:06;17.60;;;4.28;;
9522;SDS011;63165;43.016;25.784;2023-09-18T16:25:36;9.85;;;4.45;;
9522;SDS011;63165;43.016;25.784;2023-09-18T16:28:04;11.18;;;4.80;;
9522;SDS011;63165;43.016;25.784;2023-09-18T16:30:32;11.57;;;4.65;;
9522;SDS011;63165;43.016;25.784;2023-09-18T16:32:59;15.30;;;4.55;;
9522;SDS011;63165;43.016;25.784;2023-09-18T16:35:27;11.43;;;4.70;;
9522;SDS011;63165;43.016;25.784;2023-09-18T16:37:54;12.70;;;4.45;;
9522;SDS011;63165;43.016;25.784;2023-09-18T16:40:23;22.23;;;5.15;;
9522;SDS011;63165;43.016;25.784;2023-09-18T16:42:53;22.27;;;5.47;;
9522;SDS011;63165;43.016;25.784;2023-09-18T16:45:23;13.75;;;4.72;;
9522;SDS011;63165;43.016;25.784;2023-09-18T16:47:52;22.95;;;5.15;;
9522;SDS011;63165;43.016;25.784;2023-09-18T16:50:23;23.58;;;5.68;;
9522;SDS011;63165;43.016;25.784;2023-09-18T16:52:53;22.05;;;5.15;;
9522;SDS011;63165;43.016;25.784;2023-09-18T16:55:20;19.73;;;4.53;;
9522;SDS011;63165;43.016;25.784;2023-09-18T16:58:01;17.27;;;5.18;;
9522;SDS011;63165;43.016;25.784;2023-09-18T17:00:42;12.30;;;4.50;;
9522;SDS011;63165;43.016;25.784;2023-09-18T17:03:10;15.45;;;5.05;;
9522;SDS011;63165;43.016;25.784;2023-09-18T17:05:37;16.70;;;5.07;;
9522;SDS011;63165;43.016;25.784;2023-09-18T17:08:05;13.45;;;4.32;;
9522;SDS011;63165;43.016;25.784;2023-09-18T17:10:33;11.35;;;4.60;;
9522;SDS011;63165;43.016;25.784;2023-09-18T17:13:02;10.82;;;4.53;;
9522;SDS011;63165;43.016;25.784;2023-09-18T17:15:30;13.90;;;4.50;;
9522;SDS011;63165;43.016;25.784;2023-09-18T17:17:59;15.20;;;4.70;;
9522;SDS011;63165;43.016;25.784;2023-09-18T17:20:29;11.05;;;4.38;;
9522;SDS011;63165;43.016;25.784;2023-09-18T17:22:57;11.18;;;4.88;;
9522;SDS011;63165;43.016;25.784;2023-09-18T17:25:25;12.90;;;5.10;;
9522;SDS011;63165;43.016;25.784;2023-09-18T17:27:53;15.27;;;5.43;;
9522;SDS011;63165;43.016;25.784;2023-09-18T17:30:23;15.93;;;5.28;;
9522;SDS011;63165;43.016;25.784;2023-09-18T17:32:52;12.38;;;5.28;;
9522;SDS011;63165;43.016;25.784;2023-09-18T17:35:19;15.10;;;5.70;;
9522;SDS011;63165;43.016;25.784;2023-09-18T17:37:46;12.57;;;4.95;;
9522;SDS011;63165;43.016;25.784;2023-09-18T17:40:14;11.15;;;4.90;;
9522;SDS011;63165;43.016;25.784;2023-09-18T17:42:43;11.93;;;4.90;;
9522;SDS011;63165;43.016;25.784;2023-09-18T17:45:14;12.48;;;4.93;;
9522;SDS011;63165;43.016;25.784;2023-09-18T17:47:45;12.25;;;5.05;;
9522;SDS011;63165;43.016;25.784;2023-09-18T17:50:16;17.10;;;4.88;;
9522;SDS011;63165;43.016;25.784;2023-09-18T17:52:44;12.70;;;5.18;;
9522;SDS011;63165;43.016;25.784;2023-09-18T17:55:12;23.10;;;5.53;;
9522;SDS011;63165;43.016;25.784;2023-09-18T17:57:42;16.02;;;5.82;;
9522;SDS011;63165;43.016;25.784;2023-09-18T18:00:11;15.77;;;5.32;;
9522;SDS011;63165;43.016;25.784;2023-09-18T18:02:41;13.52;;;5.20;;
9522;SDS011;63165;43.016;25.784;2023-09-18T18:05:12;13.70;;;5.22;;
9522;SDS011;63165;43.016;25.784;2023-09-18T18:07:41;16.77;;;6.15;;
9522;SDS011;63165;43.016;25.784;2023-09-18T18:10:22;16.20;;;5.53;;
9522;SDS011;63165;43.016;25.784;2023-09-18T18:13:03;13.52;;;5.38;;
9522;SDS011;63165;43.016;25.784;2023-09-18T18:15:35;12.68;;;5.70;;
9522;SDS011;63165;43.016;25.784;2023-09-18T18:18:16;19.58;;;5.97;;
9522;SDS011;63165;43.016;25.784;2023-09-18T18:23:50;17.88;;;5.15;;
9522;SDS011;63165;43.016;25.784;2023-09-18T18:26:31;14.32;;;5.85;;
9522;SDS011;63165;43.016;25.784;2023-09-18T18:29:02;15.32;;;5.97;;
9522;SDS011;63165;43.016;25.784;2023-09-18T18:31:34;14.20;;;5.55;;
9522;SDS011;63165;43.016;25.784;2023-09-18T18:34:02;14.95;;;5.70;;
9522;SDS011;63165;43.016;25.784;2023-09-18T18:39:29;16.60;;;5.32;;
9522;SDS011;63165;43.016;25.784;2023-09-18T18:42:10;14.07;;;5.25;;
9522;SDS011;63165;43.016;25.784;2023-09-18T18:44:48;13.07;;;4.90;;
9522;SDS011;63165;43.016;25.784;2023-09-18T18:47:18;9.88;;;4.90;;
9522;SDS011;63165;43.016;25.784;2023-09-18T18:49:46;14.63;;;5.32;;
9522;SDS011;63165;43.016;25.784;2023-09-18T18:52:28;15.98;;;5.05;;
9522;SDS011;63165;43.016;25.784;2023-09-18T18:55:01;14.23;;;4.95;;
9522;SDS011;63165;43.016;25.784;2023-09-18T18:57:37;17.23;;;5.63;;
9522;SDS011;63165;43.016;25.784;2023-09-18T19:00:19;12.27;;;4.93;;
9522;SDS011;63165;43.016;25.784;2023-09-18T19:02:47;16.42;;;5.15;;
9522;SDS011;63165;43.016;25.784;2023-09-18T19:05:14;12.15;;;5.45;;
9522;SDS011;63165;43.016;25.784;2023-09-18T19:13:45;13.90;;;5.05;;
9522;SDS011;63165;43.016;25.784;2023-09-18T19:16:27;15.45;;;5.50;;
9522;SDS011;63165;43.016;25.784;2023-09-18T19:19:09;10.13;;;5.00;;
9522;SDS011;63165;43.016;25.784;2023-09-18T19:21:50;16.17;;;5.25;;
9522;SDS011;63165;43.016;25.784;2023-09-18T19:24:32;12.38;;;5.43;;
